DAL299 KSEA-KLAX
Flight info
| Callsign | DAL299 |
|---|---|
| Flight time | N/A |
| Altitude | 39000 |
| Route | OZWLD1 OZWLD DCT KPOWW DCT SEA152033 DCT JINMO Q7 JAGWA DCT BURGL IRNMN2 |
| Aircraft | A339/H-SADE1E2E3GHIJ3J5M1P2RWXY/LB2D1 |
Departure
| Time | N/A |
|---|---|
| Airport | Seattle–Tacoma International Airport (KSEA) |
Arrival
| Time | 2026-05-01 09:10 |
|---|---|
| Airport | Los Angeles International Airport (KLAX) |
| Time | Latitude | Longitude | Altitude | Speed | Heading |
|---|---|---|---|---|---|
| 2026-05-01 07:23 | 44.99921 | -121.80290 | 38962 ft | 485 kts | 173° |
| 2026-05-01 07:23 | 44.93245 | -121.78762 | 39105 ft | 485 kts | 173° |
| 2026-05-01 07:24 | 44.89913 | -121.78000 | 39109 ft | 485 kts | 173° |
| 2026-05-01 07:24 | 44.83272 | -121.76485 | 39109 ft | 485 kts | 173° |
| 2026-05-01 07:25 | 44.76563 | -121.74958 | 39105 ft | 485 kts | 173° |
| 2026-05-01 07:25 | 44.69914 | -121.73446 | 39105 ft | 485 kts | 173° |
| 2026-05-01 07:26 | 44.63230 | -121.71934 | 39102 ft | 486 kts | 173° |
| 2026-05-01 07:26 | 44.56551 | -121.70425 | 39101 ft | 486 kts | 173° |
| 2026-05-01 07:27 | 44.49891 | -121.68923 | 39098 ft | 487 kts | 174° |
| 2026-05-01 07:27 | 44.43173 | -121.67413 | 39096 ft | 487 kts | 174° |
| 2026-05-01 07:28 | 44.36477 | -121.65912 | 39099 ft | 488 kts | 174° |
| 2026-05-01 07:28 | 44.29731 | -121.64390 | 39097 ft | 488 kts | 173° |
| 2026-05-01 07:29 | 44.23067 | -121.62836 | 39097 ft | 489 kts | 173° |
| 2026-05-01 07:29 | 44.16339 | -121.61270 | 39097 ft | 489 kts | 173° |
| 2026-05-01 07:30 | 44.09643 | -121.59721 | 39104 ft | 490 kts | 173° |
| 2026-05-01 07:30 | 44.02885 | -121.58164 | 39102 ft | 490 kts | 174° |
| 2026-05-01 07:31 | 43.96168 | -121.56620 | 39099 ft | 491 kts | 174° |
| 2026-05-01 07:32 | 43.79278 | -121.52751 | 39094 ft | 492 kts | 174° |
| 2026-05-01 07:33 | 43.69116 | -121.50434 | 39091 ft | 493 kts | 174° |
| 2026-05-01 07:33 | 43.58975 | -121.48129 | 39089 ft | 494 kts | 174° |
| 2026-05-01 07:34 | 43.48807 | -121.45827 | 39086 ft | 495 kts | 174° |
| 2026-05-01 07:35 | 43.43102 | -121.44538 | 39084 ft | 496 kts | 174° |
| 2026-05-01 07:35 | 43.36333 | -121.43012 | 39092 ft | 496 kts | 174° |
| 2026-05-01 07:36 | 43.29461 | -121.41467 | 39086 ft | 497 kts | 174° |
| 2026-05-01 07:36 | 43.22623 | -121.39933 | 39086 ft | 498 kts | 174° |
| 2026-05-01 07:37 | 43.12359 | -121.37637 | 39086 ft | 499 kts | 174° |
| 2026-05-01 07:37 | 43.05534 | -121.36113 | 39080 ft | 499 kts | 174° |
| 2026-05-01 07:38 | 42.98674 | -121.34584 | 39082 ft | 500 kts | 174° |
| 2026-05-01 07:39 | 42.88353 | -121.32294 | 39088 ft | 501 kts | 175° |
| 2026-05-01 07:39 | 42.78066 | -121.30020 | 39088 ft | 502 kts | 175° |
| 2026-05-01 07:40 | 42.71159 | -121.28495 | 39090 ft | 503 kts | 175° |
| 2026-05-01 07:40 | 42.64244 | -121.26974 | 39090 ft | 503 kts | 175° |
| 2026-05-01 07:41 | 42.57314 | -121.25454 | 39094 ft | 504 kts | 175° |
| 2026-05-01 07:42 | 42.46904 | -121.23173 | 39083 ft | 505 kts | 175° |
| 2026-05-01 07:42 | 42.39998 | -121.21665 | 39083 ft | 505 kts | 175° |
| 2026-05-01 07:43 | 42.33004 | -121.20141 | 39091 ft | 506 kts | 175° |
| 2026-05-01 07:43 | 42.22560 | -121.17871 | 39084 ft | 507 kts | 175° |
| 2026-05-01 07:44 | 42.08662 | -121.14865 | 39083 ft | 508 kts | 175° |
| 2026-05-01 07:45 | 42.01676 | -121.13358 | 39081 ft | 508 kts | 175° |
| 2026-05-01 07:45 | 41.94686 | -121.11854 | 39078 ft | 509 kts | 175° |
| 2026-05-01 07:46 | 41.87674 | -121.10348 | 39079 ft | 509 kts | 175° |
| 2026-05-01 07:47 | 41.77192 | -121.08103 | 39069 ft | 510 kts | 175° |
| 2026-05-01 07:47 | 41.70199 | -121.06610 | 39078 ft | 510 kts | 176° |
| 2026-05-01 07:48 | 41.59641 | -121.04362 | 39088 ft | 511 kts | 176° |
| 2026-05-01 07:48 | 41.52624 | -121.02872 | 39095 ft | 511 kts | 176° |
| 2026-05-01 07:49 | 41.42094 | -121.00641 | 39093 ft | 511 kts | 176° |
| 2026-05-01 07:50 | 41.35077 | -120.99158 | 39088 ft | 511 kts | 176° |
| 2026-05-01 07:50 | 41.24528 | -120.96937 | 39070 ft | 512 kts | 176° |
| 2026-05-01 07:51 | 41.17485 | -120.95457 | 39069 ft | 512 kts | 176° |
| 2026-05-01 07:52 | 41.06929 | -120.93247 | 39067 ft | 512 kts | 176° |
| 2026-05-01 07:52 | 40.99874 | -120.91829 | 39054 ft | 509 kts | 179° |
| 2026-05-01 07:53 | 40.89319 | -120.90956 | 39053 ft | 507 kts | 182° |
| 2026-05-01 07:53 | 40.82250 | -120.90397 | 39050 ft | 507 kts | 182° |
| 2026-05-01 07:55 | 40.64627 | -120.88990 | 39047 ft | 508 kts | 182° |
| 2026-05-01 07:56 | 40.46970 | -120.87588 | 39084 ft | 508 kts | 183° |
| 2026-05-01 07:57 | 40.36438 | -120.86752 | 39098 ft | 507 kts | 183° |
| 2026-05-01 07:58 | 40.22389 | -120.85649 | 39076 ft | 504 kts | 183° |
| 2026-05-01 07:59 | 40.08364 | -120.84550 | 39035 ft | 503 kts | 183° |
| 2026-05-01 08:00 | 39.87424 | -120.82917 | 39029 ft | 503 kts | 183° |
| 2026-05-01 08:01 | 39.73484 | -120.81836 | 39008 ft | 502 kts | 183° |
| 2026-05-01 08:02 | 39.63045 | -120.81027 | 38998 ft | 502 kts | 183° |
| 2026-05-01 08:03 | 39.52602 | -120.80222 | 39051 ft | 501 kts | 183° |
| 2026-05-01 08:03 | 39.42165 | -120.79414 | 39106 ft | 499 kts | 183° |
| 2026-05-01 08:04 | 39.28313 | -120.78362 | 39150 ft | 498 kts | 183° |
| 2026-05-01 08:05 | 39.17935 | -120.77569 | 39140 ft | 497 kts | 183° |
| 2026-05-01 08:06 | 39.07600 | -120.76782 | 39078 ft | 496 kts | 183° |
| 2026-05-01 08:07 | 38.93800 | -120.75737 | 39015 ft | 497 kts | 183° |
| 2026-05-01 08:08 | 38.83450 | -120.74955 | 39050 ft | 496 kts | 183° |
| 2026-05-01 08:09 | 38.69666 | -120.73917 | 39052 ft | 496 kts | 183° |
| 2026-05-01 08:09 | 38.62801 | -120.73399 | 38749 ft | 492 kts | 183° |
| 2026-05-01 08:10 | 38.55930 | -120.72890 | 37337 ft | 495 kts | 183° |
| 2026-05-01 08:10 | 38.49023 | -120.72381 | 35660 ft | 500 kts | 182° |
| 2026-05-01 08:11 | 38.42033 | -120.71863 | 33998 ft | 506 kts | 181° |
| 2026-05-01 08:11 | 38.34972 | -120.71337 | 32141 ft | 509 kts | 181° |
| 2026-05-01 08:12 | 38.27940 | -120.70811 | 30565 ft | 507 kts | 180° |
| 2026-05-01 08:12 | 38.24430 | -120.70548 | 29986 ft | 502 kts | 180° |
| 2026-05-01 08:12 | 38.17534 | -120.70034 | 28702 ft | 491 kts | 180° |
| 2026-05-01 08:13 | 38.14137 | -120.69782 | 28057 ft | 487 kts | 180° |
| 2026-05-01 08:13 | 38.10808 | -120.69537 | 27433 ft | 483 kts | 180° |
| 2026-05-01 08:13 | 38.05239 | -120.69125 | 26408 ft | 475 kts | 180° |
| 2026-05-01 08:14 | 38.00895 | -120.68807 | 25611 ft | 469 kts | 179° |
| 2026-05-01 08:14 | 37.97649 | -120.68567 | 25173 ft | 463 kts | 179° |
| 2026-05-01 08:14 | 37.95489 | -120.68408 | 25058 ft | 461 kts | 179° |
| 2026-05-01 08:14 | 37.92265 | -120.68171 | 24997 ft | 466 kts | 179° |
| 2026-05-01 08:15 | 37.87971 | -120.67857 | 24977 ft | 466 kts | 179° |
| 2026-05-01 08:15 | 37.82538 | -120.67458 | 24967 ft | 466 kts | 179° |
| 2026-05-01 08:15 | 37.79347 | -120.67224 | 24960 ft | 466 kts | 179° |
| 2026-05-01 08:16 | 37.76111 | -120.66986 | 24964 ft | 465 kts | 179° |
| 2026-05-01 08:16 | 37.72880 | -120.66749 | 24960 ft | 465 kts | 179° |
| 2026-05-01 08:16 | 37.69653 | -120.66513 | 24963 ft | 465 kts | 179° |
| 2026-05-01 08:16 | 37.66421 | -120.66277 | 24958 ft | 465 kts | 179° |
| 2026-05-01 08:17 | 37.63187 | -120.66040 | 24950 ft | 465 kts | 179° |
| 2026-05-01 08:17 | 37.59944 | -120.65803 | 24960 ft | 465 kts | 179° |
| 2026-05-01 08:17 | 37.56712 | -120.65568 | 24955 ft | 465 kts | 179° |
| 2026-05-01 08:17 | 37.53528 | -120.65336 | 24955 ft | 464 kts | 179° |
| 2026-05-01 08:18 | 37.50296 | -120.65100 | 24959 ft | 465 kts | 179° |
| 2026-05-01 08:18 | 37.43836 | -120.64631 | 24956 ft | 464 kts | 179° |
| 2026-05-01 08:19 | 37.37390 | -120.64162 | 24965 ft | 464 kts | 179° |
| 2026-05-01 08:19 | 37.34165 | -120.63897 | 24954 ft | 465 kts | 177° |
| 2026-05-01 08:19 | 37.30967 | -120.63231 | 24830 ft | 467 kts | 168° |
| 2026-05-01 08:19 | 37.27820 | -120.62191 | 24650 ft | 466 kts | 167° |
| 2026-05-01 08:20 | 37.24690 | -120.61145 | 24463 ft | 464 kts | 167° |
| 2026-05-01 08:20 | 37.21572 | -120.60116 | 24275 ft | 463 kts | 167° |
| 2026-05-01 08:20 | 37.18449 | -120.59095 | 24093 ft | 462 kts | 167° |
| 2026-05-01 08:20 | 37.15386 | -120.58098 | 23916 ft | 460 kts | 167° |
| 2026-05-01 08:21 | 37.12316 | -120.57103 | 23733 ft | 459 kts | 167° |
| 2026-05-01 08:21 | 37.09198 | -120.56093 | 23547 ft | 457 kts | 167° |
| 2026-05-01 08:21 | 37.06124 | -120.55099 | 23337 ft | 456 kts | 167° |
| 2026-05-01 08:21 | 37.03056 | -120.54106 | 23122 ft | 454 kts | 167° |
| 2026-05-01 08:22 | 36.99999 | -120.53118 | 22903 ft | 453 kts | 167° |
| 2026-05-01 08:22 | 36.96949 | -120.52133 | 22705 ft | 451 kts | 167° |
| 2026-05-01 08:22 | 36.93911 | -120.51152 | 22489 ft | 450 kts | 167° |
| 2026-05-01 08:22 | 36.90884 | -120.50176 | 22281 ft | 448 kts | 167° |
| 2026-05-01 08:23 | 36.87901 | -120.49215 | 22075 ft | 447 kts | 167° |
| 2026-05-01 08:23 | 36.84890 | -120.48246 | 21862 ft | 445 kts | 167° |
| 2026-05-01 08:23 | 36.81891 | -120.47281 | 21662 ft | 444 kts | 167° |
| 2026-05-01 08:23 | 36.78910 | -120.46323 | 21459 ft | 443 kts | 167° |
| 2026-05-01 08:24 | 36.75927 | -120.45366 | 21263 ft | 441 kts | 167° |
| 2026-05-01 08:24 | 36.72950 | -120.44411 | 21059 ft | 440 kts | 167° |
| 2026-05-01 08:24 | 36.69986 | -120.43460 | 20867 ft | 439 kts | 167° |
| 2026-05-01 08:24 | 36.67027 | -120.42512 | 20668 ft | 437 kts | 167° |
| 2026-05-01 08:25 | 36.64088 | -120.41571 | 20473 ft | 436 kts | 167° |
| 2026-05-01 08:25 | 36.61142 | -120.40629 | 20278 ft | 435 kts | 167° |
| 2026-05-01 08:25 | 36.58216 | -120.39694 | 20089 ft | 434 kts | 167° |
| 2026-05-01 08:25 | 36.55291 | -120.38760 | 19896 ft | 433 kts | 167° |
| 2026-05-01 08:26 | 36.52378 | -120.37831 | 19711 ft | 431 kts | 167° |
| 2026-05-01 08:26 | 36.49473 | -120.36904 | 19517 ft | 430 kts | 167° |
| 2026-05-01 08:26 | 36.46580 | -120.35983 | 19330 ft | 429 kts | 167° |
| 2026-05-01 08:26 | 36.43689 | -120.35062 | 19145 ft | 428 kts | 167° |
| 2026-05-01 08:27 | 36.40800 | -120.34143 | 18957 ft | 426 kts | 167° |
| 2026-05-01 08:27 | 36.37925 | -120.33229 | 18768 ft | 426 kts | 167° |
| 2026-05-01 08:27 | 36.35057 | -120.32318 | 18597 ft | 424 kts | 167° |
| 2026-05-01 08:27 | 36.32199 | -120.31411 | 18403 ft | 423 kts | 167° |
| 2026-05-01 08:28 | 36.29371 | -120.30514 | 18217 ft | 422 kts | 167° |
| 2026-05-01 08:28 | 36.26535 | -120.29615 | 18003 ft | 420 kts | 167° |
| 2026-05-01 08:28 | 36.23698 | -120.28717 | 17778 ft | 419 kts | 166° |
| 2026-05-01 08:28 | 36.20881 | -120.27826 | 17584 ft | 417 kts | 166° |
| 2026-05-01 08:29 | 36.18068 | -120.26937 | 17377 ft | 415 kts | 166° |
| 2026-05-01 08:29 | 36.15274 | -120.26054 | 17178 ft | 414 kts | 166° |
| 2026-05-01 08:29 | 36.12488 | -120.25174 | 17005 ft | 412 kts | 166° |
| 2026-05-01 08:29 | 36.09706 | -120.24296 | 16986 ft | 412 kts | 166° |
| 2026-05-01 08:30 | 36.06930 | -120.23421 | 16976 ft | 412 kts | 166° |
| 2026-05-01 08:30 | 36.04184 | -120.22556 | 16931 ft | 412 kts | 166° |
| 2026-05-01 08:30 | 36.01406 | -120.21681 | 16963 ft | 412 kts | 166° |
| 2026-05-01 08:30 | 35.98624 | -120.20806 | 16965 ft | 412 kts | 167° |
| 2026-05-01 08:31 | 35.95848 | -120.19933 | 16966 ft | 412 kts | 167° |
| 2026-05-01 08:31 | 35.93076 | -120.19062 | 16963 ft | 411 kts | 167° |
| 2026-05-01 08:31 | 35.90302 | -120.18191 | 16964 ft | 411 kts | 167° |
| 2026-05-01 08:31 | 35.87524 | -120.17320 | 16962 ft | 411 kts | 167° |
| 2026-05-01 08:32 | 35.84738 | -120.16447 | 16968 ft | 411 kts | 167° |
| 2026-05-01 08:32 | 35.82002 | -120.15591 | 16965 ft | 411 kts | 167° |
| 2026-05-01 08:32 | 35.79193 | -120.14711 | 16969 ft | 411 kts | 167° |
| 2026-05-01 08:32 | 35.76418 | -120.13842 | 16971 ft | 411 kts | 167° |
| 2026-05-01 08:33 | 35.73681 | -120.12987 | 16970 ft | 411 kts | 167° |
| 2026-05-01 08:33 | 35.70910 | -120.12122 | 16933 ft | 411 kts | 167° |
| 2026-05-01 08:33 | 35.68149 | -120.11210 | 16684 ft | 410 kts | 163° |
| 2026-05-01 08:33 | 35.65504 | -120.09896 | 16440 ft | 408 kts | 154° |
| 2026-05-01 08:34 | 35.63052 | -120.08158 | 16207 ft | 406 kts | 148° |
| 2026-05-01 08:34 | 35.60658 | -120.06312 | 15949 ft | 404 kts | 148° |
| 2026-05-01 08:34 | 35.58273 | -120.04493 | 15704 ft | 403 kts | 148° |
| 2026-05-01 08:34 | 35.55887 | -120.02687 | 15457 ft | 401 kts | 148° |
| 2026-05-01 08:35 | 35.53515 | -120.00899 | 15215 ft | 400 kts | 148° |
| 2026-05-01 08:35 | 35.51150 | -119.99120 | 14977 ft | 398 kts | 148° |
| 2026-05-01 08:35 | 35.48791 | -119.97346 | 14739 ft | 396 kts | 148° |
| 2026-05-01 08:35 | 35.46441 | -119.95581 | 14502 ft | 394 kts | 148° |
| 2026-05-01 08:36 | 35.44136 | -119.93850 | 14270 ft | 393 kts | 148° |
| 2026-05-01 08:36 | 35.41807 | -119.92102 | 14046 ft | 391 kts | 148° |
| 2026-05-01 08:36 | 35.39494 | -119.90366 | 13962 ft | 390 kts | 148° |
| 2026-05-01 08:36 | 35.37170 | -119.88623 | 13961 ft | 390 kts | 148° |
| 2026-05-01 08:37 | 35.34843 | -119.86880 | 13960 ft | 391 kts | 148° |
| 2026-05-01 08:37 | 35.32555 | -119.85168 | 13962 ft | 391 kts | 148° |
| 2026-05-01 08:37 | 35.30229 | -119.83429 | 13964 ft | 391 kts | 148° |
| 2026-05-01 08:37 | 35.27963 | -119.81601 | 13963 ft | 390 kts | 142° |
| 2026-05-01 08:38 | 35.25809 | -119.79569 | 13958 ft | 391 kts | 141° |
| 2026-05-01 08:38 | 35.23660 | -119.77543 | 13957 ft | 390 kts | 142° |
| 2026-05-01 08:38 | 35.21500 | -119.75516 | 13960 ft | 390 kts | 142° |
| 2026-05-01 08:38 | 35.19342 | -119.73497 | 13961 ft | 390 kts | 142° |
| 2026-05-01 08:39 | 35.17186 | -119.71484 | 13962 ft | 390 kts | 142° |
| 2026-05-01 08:39 | 35.15025 | -119.69467 | 13961 ft | 391 kts | 142° |
| 2026-05-01 08:39 | 35.12864 | -119.67453 | 13961 ft | 390 kts | 142° |
| 2026-05-01 08:39 | 35.10707 | -119.65444 | 13963 ft | 390 kts | 142° |
| 2026-05-01 08:40 | 35.06384 | -119.61421 | 13964 ft | 391 kts | 142° |
| 2026-05-01 08:40 | 35.04221 | -119.59409 | 13965 ft | 390 kts | 142° |
| 2026-05-01 08:40 | 35.02086 | -119.57425 | 13967 ft | 391 kts | 142° |
| 2026-05-01 08:41 | 34.99918 | -119.55412 | 13963 ft | 391 kts | 142° |
| 2026-05-01 08:41 | 34.97754 | -119.53404 | 13963 ft | 391 kts | 142° |
| 2026-05-01 08:41 | 34.95585 | -119.51393 | 13964 ft | 391 kts | 142° |
| 2026-05-01 08:41 | 34.93421 | -119.49387 | 13967 ft | 391 kts | 142° |
| 2026-05-01 08:42 | 34.91250 | -119.47377 | 13968 ft | 391 kts | 142° |
| 2026-05-01 08:42 | 34.89070 | -119.45392 | 13969 ft | 391 kts | 143° |
| 2026-05-01 08:42 | 34.86877 | -119.43434 | 13969 ft | 391 kts | 143° |
| 2026-05-01 08:42 | 34.84677 | -119.41480 | 13970 ft | 391 kts | 143° |
| 2026-05-01 08:43 | 34.82500 | -119.39543 | 13971 ft | 391 kts | 143° |
| 2026-05-01 08:43 | 34.80303 | -119.37585 | 13969 ft | 391 kts | 143° |
| 2026-05-01 08:43 | 34.78105 | -119.35624 | 13964 ft | 391 kts | 143° |
| 2026-05-01 08:43 | 34.75911 | -119.33666 | 13965 ft | 391 kts | 143° |
| 2026-05-01 08:44 | 34.73717 | -119.31710 | 13971 ft | 391 kts | 143° |
| 2026-05-01 08:44 | 34.71510 | -119.29774 | 13966 ft | 391 kts | 144° |
| 2026-05-01 08:44 | 34.69300 | -119.27850 | 13967 ft | 391 kts | 144° |
| 2026-05-01 08:44 | 34.67087 | -119.25925 | 13963 ft | 391 kts | 144° |
| 2026-05-01 08:45 | 34.64897 | -119.24018 | 13971 ft | 391 kts | 144° |
| 2026-05-01 08:45 | 34.62668 | -119.22087 | 13967 ft | 391 kts | 144° |
| 2026-05-01 08:45 | 34.60453 | -119.20179 | 13965 ft | 392 kts | 144° |
| 2026-05-01 08:45 | 34.58233 | -119.18271 | 13963 ft | 392 kts | 144° |
| 2026-05-01 08:46 | 34.55993 | -119.16344 | 13967 ft | 392 kts | 144° |
| 2026-05-01 08:46 | 34.53777 | -119.14408 | 13968 ft | 392 kts | 143° |
| 2026-05-01 08:46 | 34.51579 | -119.12456 | 13971 ft | 392 kts | 143° |
| 2026-05-01 08:46 | 34.49379 | -119.10496 | 13973 ft | 392 kts | 143° |
| 2026-05-01 08:47 | 34.47204 | -119.08562 | 13975 ft | 393 kts | 143° |
| 2026-05-01 08:47 | 34.44990 | -119.06600 | 13975 ft | 393 kts | 143° |
| 2026-05-01 08:47 | 34.42787 | -119.04657 | 13979 ft | 393 kts | 144° |
| 2026-05-01 08:47 | 34.40566 | -119.02727 | 13978 ft | 391 kts | 144° |
| 2026-05-01 08:48 | 34.38344 | -119.00810 | 13981 ft | 392 kts | 144° |
| 2026-05-01 08:48 | 34.36121 | -118.98894 | 13983 ft | 393 kts | 144° |
| 2026-05-01 08:48 | 34.33898 | -118.96976 | 13982 ft | 392 kts | 144° |
| 2026-05-01 08:48 | 34.31695 | -118.95023 | 13981 ft | 393 kts | 143° |
| 2026-05-01 08:49 | 34.29539 | -118.93056 | 13984 ft | 393 kts | 142° |
| 2026-05-01 08:49 | 34.27357 | -118.91056 | 13989 ft | 393 kts | 142° |
| 2026-05-01 08:49 | 34.25178 | -118.89065 | 13971 ft | 391 kts | 143° |
| 2026-05-01 08:49 | 34.23035 | -118.87100 | 13894 ft | 382 kts | 142° |
| 2026-05-01 08:50 | 34.20952 | -118.85180 | 13773 ft | 369 kts | 142° |
| 2026-05-01 08:50 | 34.18955 | -118.83339 | 13620 ft | 352 kts | 142° |
| 2026-05-01 08:50 | 34.17049 | -118.81585 | 13450 ft | 336 kts | 142° |
| 2026-05-01 08:50 | 34.15281 | -118.79788 | 12984 ft | 329 kts | 137° |
| 2026-05-01 08:51 | 34.13603 | -118.77943 | 12499 ft | 324 kts | 137° |
| 2026-05-01 08:51 | 34.11967 | -118.76150 | 12035 ft | 319 kts | 137° |
| 2026-05-01 08:51 | 34.10329 | -118.74362 | 11553 ft | 314 kts | 137° |
| 2026-05-01 08:51 | 34.08729 | -118.72621 | 11269 ft | 302 kts | 138° |
| 2026-05-01 08:52 | 34.07188 | -118.70947 | 10860 ft | 295 kts | 138° |
| 2026-05-01 08:52 | 34.05670 | -118.69299 | 10399 ft | 292 kts | 138° |
| 2026-05-01 08:52 | 34.04179 | -118.67671 | 9989 ft | 285 kts | 136° |
| 2026-05-01 08:52 | 34.03039 | -118.65749 | 9409 ft | 283 kts | 114° |
| 2026-05-01 08:53 | 34.02599 | -118.63446 | 8744 ft | 284 kts | 95° |
| 2026-05-01 08:53 | 34.02427 | -118.61089 | 8332 ft | 277 kts | 95° |
| 2026-05-01 08:53 | 34.02248 | -118.58795 | 8085 ft | 277 kts | 95° |
| 2026-05-01 08:53 | 34.02050 | -118.56505 | 8001 ft | 267 kts | 96° |
| 2026-05-01 08:54 | 34.01852 | -118.54368 | 7962 ft | 247 kts | 96° |
| 2026-05-01 08:54 | 34.01661 | -118.52359 | 7621 ft | 243 kts | 96° |
| 2026-05-01 08:54 | 34.01469 | -118.50345 | 7332 ft | 241 kts | 96° |
| 2026-05-01 08:54 | 34.01273 | -118.48296 | 7068 ft | 246 kts | 96° |
| 2026-05-01 08:55 | 34.01100 | -118.46267 | 7008 ft | 243 kts | 91° |
| 2026-05-01 08:55 | 34.01216 | -118.44237 | 6934 ft | 244 kts | 77° |
| 2026-05-01 08:55 | 34.01588 | -118.42253 | 6760 ft | 240 kts | 75° |
| 2026-05-01 08:55 | 34.01833 | -118.40948 | 6534 ft | 241 kts | 76° |
| 2026-05-01 08:56 | 34.02307 | -118.38309 | 6076 ft | 238 kts | 76° |
| 2026-05-01 08:56 | 34.02531 | -118.37020 | 6024 ft | 238 kts | 76° |
| 2026-05-01 08:56 | 34.02834 | -118.35045 | 5995 ft | 240 kts | 81° |
| 2026-05-01 08:56 | 34.03026 | -118.33041 | 5985 ft | 240 kts | 82° |
| 2026-05-01 08:57 | 34.03217 | -118.31044 | 5992 ft | 240 kts | 82° |
| 2026-05-01 08:57 | 34.03413 | -118.29046 | 5977 ft | 240 kts | 81° |
| 2026-05-01 08:57 | 34.03617 | -118.27054 | 5877 ft | 238 kts | 81° |
| 2026-05-01 08:57 | 34.03828 | -118.25086 | 5572 ft | 236 kts | 81° |
| 2026-05-01 08:58 | 34.04045 | -118.23103 | 5221 ft | 235 kts | 81° |
| 2026-05-01 08:58 | 34.04259 | -118.21159 | 4888 ft | 233 kts | 81° |
| 2026-05-01 08:58 | 34.04470 | -118.19235 | 4632 ft | 229 kts | 81° |
| 2026-05-01 08:58 | 34.04683 | -118.17309 | 4455 ft | 233 kts | 81° |
| 2026-05-01 08:59 | 34.04894 | -118.15394 | 4303 ft | 229 kts | 81° |
| 2026-05-01 08:59 | 34.05098 | -118.13512 | 4167 ft | 229 kts | 81° |
| 2026-05-01 08:59 | 34.05303 | -118.11606 | 4015 ft | 229 kts | 81° |
| 2026-05-01 08:59 | 34.05506 | -118.09715 | 3971 ft | 227 kts | 81° |
| 2026-05-01 09:00 | 34.05711 | -118.07820 | 3973 ft | 229 kts | 81° |
| 2026-05-01 09:00 | 34.05916 | -118.05919 | 3974 ft | 228 kts | 81° |
| 2026-05-01 09:00 | 34.06107 | -118.04054 | 3964 ft | 217 kts | 84° |
| 2026-05-01 09:00 | 34.05857 | -118.02343 | 3926 ft | 204 kts | 113° |
| 2026-05-01 09:01 | 34.04969 | -118.00999 | 3549 ft | 210 kts | 144° |
| 2026-05-01 09:01 | 34.03665 | -118.00363 | 3591 ft | 189 kts | 173° |
| 2026-05-01 09:01 | 34.02342 | -118.00502 | 3908 ft | 197 kts | 198° |
| 2026-05-01 09:01 | 34.01076 | -118.01166 | 4057 ft | 199 kts | 211° |
| 2026-05-01 09:02 | 33.99937 | -118.02112 | 3970 ft | 196 kts | 223° |
| 2026-05-01 09:02 | 33.99100 | -118.03335 | 3942 ft | 184 kts | 240° |
| 2026-05-01 09:02 | 33.98516 | -118.04754 | 3978 ft | 190 kts | 250° |
| 2026-05-01 09:02 | 33.98182 | -118.06284 | 3952 ft | 187 kts | 264° |
| 2026-05-01 09:03 | 33.98009 | -118.07849 | 3878 ft | 188 kts | 267° |
| 2026-05-01 09:03 | 33.97917 | -118.09392 | 3801 ft | 179 kts | 269° |
| 2026-05-01 09:03 | 33.98009 | -118.10774 | 3988 ft | 161 kts | 279° |
| 2026-05-01 09:03 | 33.98061 | -118.12155 | 3979 ft | 162 kts | 270° |
| 2026-05-01 09:04 | 33.97951 | -118.13501 | 3982 ft | 163 kts | 264° |
| 2026-05-01 09:04 | 33.97793 | -118.14855 | 3973 ft | 163 kts | 264° |
| 2026-05-01 09:04 | 33.97657 | -118.16183 | 3931 ft | 154 kts | 265° |
| 2026-05-01 09:04 | 33.97527 | -118.17460 | 3783 ft | 156 kts | 265° |
| 2026-05-01 09:05 | 33.97398 | -118.18727 | 3596 ft | 153 kts | 264° |
| 2026-05-01 09:05 | 33.97267 | -118.20016 | 3418 ft | 153 kts | 264° |
| 2026-05-01 09:05 | 33.97138 | -118.21283 | 3229 ft | 154 kts | 264° |
| 2026-05-01 09:05 | 33.97008 | -118.22561 | 3035 ft | 153 kts | 264° |
| 2026-05-01 09:06 | 33.96878 | -118.23835 | 2833 ft | 153 kts | 264° |
| 2026-05-01 09:06 | 33.96748 | -118.25109 | 2627 ft | 154 kts | 263° |
| 2026-05-01 09:06 | 33.96620 | -118.26368 | 2437 ft | 153 kts | 263° |
| 2026-05-01 09:06 | 33.96490 | -118.27640 | 2216 ft | 151 kts | 263° |
| 2026-05-01 09:07 | 33.96361 | -118.28909 | 2022 ft | 151 kts | 262° |
| 2026-05-01 09:07 | 33.96234 | -118.30149 | 1830 ft | 152 kts | 262° |
| 2026-05-01 09:07 | 33.96106 | -118.31404 | 1623 ft | 151 kts | 262° |
| 2026-05-01 09:07 | 33.95979 | -118.32648 | 1417 ft | 149 kts | 262° |
| 2026-05-01 09:08 | 33.95851 | -118.33897 | 1208 ft | 147 kts | 262° |
| 2026-05-01 09:08 | 33.95725 | -118.35133 | 1028 ft | 151 kts | 263° |
| 2026-05-01 09:08 | 33.95592 | -118.36362 | 784 ft | 146 kts | 263° |
| 2026-05-01 09:08 | 33.95479 | -118.37572 | 641 ft | 144 kts | 263° |
| 2026-05-01 09:09 | 33.95356 | -118.38789 | 455 ft | 146 kts | 263° |
| 2026-05-01 09:09 | 33.95233 | -118.39992 | 287 ft | 146 kts | 263° |
| 2026-05-01 09:09 | 33.95108 | -118.41190 | 230 ft | 137 kts | 263° |
| 2026-05-01 09:09 | 33.95004 | -118.42280 | 130 ft | 139 kts | 263° |
| 2026-05-01 09:10 | 33.94936 | -118.42900 | 131 ft | 26 kts | 262° |
| 2026-05-01 09:10 | 33.94879 | -118.43093 | 123 ft | 16 kts | 208° |
| 2026-05-01 09:10 | 33.94761 | -118.43079 | 127 ft | 20 kts | 173° |
| 2026-05-01 09:10 | 33.94640 | -118.42978 | 127 ft | 24 kts | 128° |
| 2026-05-01 09:11 | 33.94616 | -118.42813 | 123 ft | 22 kts | 105° |
| 2026-05-01 09:11 | 33.94523 | -118.42764 | 128 ft | 17 kts | 172° |
| 2026-05-01 09:11 | 33.94427 | -118.42768 | 129 ft | 4 kts | 218° |
| 2026-05-01 09:11 | 33.94411 | -118.42808 | 129 ft | 6 kts | 250° |
| 2026-05-01 09:12 | 33.94401 | -118.42867 | 123 ft | 7 kts | 262° |
| 2026-05-01 09:12 | 33.94400 | -118.42872 | 123 ft | 0 kts | 262° |